Weather reports worldwide

Advertisment
Dunstaffnage, United Kingdom (99006): temperature & dewpoint: 17.10.2017 03:00:00 - 23.10.2017 03:00:00 (BST)Dunstaffnage, United Kingdom (99006): temperature -20cm: 17.10.2017 03:00:00 - 23.10.2017 03:00:00 (BST)Dunstaffnage, United Kingdom (99006): wind speed & gusts: 17.10.2017 03:00:00 - 23.10.2017 03:00:00 (BST)Dunstaffnage, United Kingdom (99006): wind direction: 17.10.2017 03:00:00 - 23.10.2017 03:00:00 (BST)Dunstaffnage, United Kingdom (99006): precipitation: 17.10.2017 03:00:00 - 23.10.2017 03:00:00 (BST)
Date & Time tt [°C] td [°C] tt -20cm [°C] ff [km/h] ff [kn] fx [km/h] fx [kn] dd rr [mm]
23.10.2017 03:00:00 8,9 7,6 - 22 12 - - E 0,0
23.10.2017 02:00:00 8,8 7,5 - 16 9 - - ESE 0,4
23.10.2017 01:00:00 9,2 7,2 - 9 5 - - SE 0,2
23.10.2017 00:00:00 9,5 6,5 - 15 8 - - SE 0,0
22.10.2017 23:00:00 9,1 6,4 - 11 6 - - SSE 0,0
22.10.2017 22:00:00 8,3 6,0 - 2 1 - - SSW 0,0
22.10.2017 21:00:00 8,4 6,0 - 4 2 - - SSW -
22.10.2017 20:00:00 9,8 5,5 - 5 3 - - W 0,0
22.10.2017 19:00:00 10,2 5,1 - 16 9 - - W 0,0
22.10.2017 18:00:00 10,2 6,0 - 21 11 - - W 0,0
22.10.2017 17:00:00 10,2 7,5 - 24 13 - - W 0,0
22.10.2017 16:00:00 10,3 8,2 - 31 17 46 25 W 0,0
22.10.2017 15:00:00 10,3 8,9 - 35 19 50 27 W 0,0
22.10.2017 14:00:00 11,3 9,1 - 29 16 - - W 0,0
22.10.2017 13:00:00 10,7 9,6 - 31 17 54 29 W 0,0
22.10.2017 12:00:00 11,2 9,8 - 35 19 48 26 W 0,0
22.10.2017 11:00:00 11,3 9,3 - 24 13 - - WNW 0,0
22.10.2017 10:00:00 11,4 9,6 11,7 24 13 46 25 W 0,0
22.10.2017 09:00:00 11,0 9,7 - 24 13 - - WNW 1,6
22.10.2017 08:00:00 11,6 10,6 - 26 14 - - W 0,0
22.10.2017 07:00:00 11,5 10,3 - 26 14 - - W -
22.10.2017 06:00:00 11,1 10,2 - 34 18 - - W 0,0
22.10.2017 05:00:00 - - - - - - - - 2,8
22.10.2017 04:00:00 10,3 9,9 - 18 10 - - W -
22.10.2017 03:00:00 11,1 10,7 - 21 11 - - W 2,8
22.10.2017 02:00:00 10,6 10,0 - 15 8 - - W 2,4
22.10.2017 01:00:00 10,8 9,6 - 13 7 - - W 0,2
22.10.2017 00:00:00 10,6 9,7 - 11 6 - - WNW 1,2
21.10.2017 23:00:00 10,6 9,9 - 11 6 - - WNW 2,0
21.10.2017 22:00:00 10,5 10,1 - 9 5 - - W 6,0
21.10.2017 21:00:00 10,9 10,4 - 11 6 - - NW 4,8
21.10.2017 20:00:00 10,8 10,4 - 5 3 - - N 3,0
21.10.2017 19:00:00 10,6 10,2 - 5 3 - - N 3,6
21.10.2017 18:00:00 10,7 10,0 - 8 4 - - N 5,0
21.10.2017 17:00:00 11,1 9,9 - 8 4 - - N 0,6
21.10.2017 16:00:00 11,0 9,8 - 4 2 - - N 1,8
21.10.2017 15:00:00 11,1 9,8 - 9 5 - - E 1,0
21.10.2017 14:00:00 13,2 9,4 - 18 10 - - E 0,0
21.10.2017 13:00:00 12,9 9,3 - 16 9 - - E 0,0
21.10.2017 12:00:00 12,3 9,3 - 16 9 - - E 0,0
21.10.2017 11:00:00 12,1 9,7 - 15 8 - - E 0,0
21.10.2017 10:00:00 11,6 9,5 11,9 18 10 - - E 0,2
21.10.2017 09:00:00 11,3 9,4 - 15 8 - - E 0,0
21.10.2017 08:00:00 11,1 9,1 - 15 8 - - E 0,0
21.10.2017 07:00:00 - - - - - - - - -
21.10.2017 06:00:00 - - - - - - - - -
21.10.2017 05:00:00 - - - - - - - - -
21.10.2017 04:00:00 - - - - - - - - -
21.10.2017 03:00:00 - - - - - - - - -
21.10.2017 02:00:00 - - - - - - - - -
21.10.2017 01:00:00 - - - - - - - - -
21.10.2017 00:00:00 - - - - - - - - -
20.10.2017 23:00:00 - - - - - - - - -
20.10.2017 22:00:00 - - - - - - - - -
20.10.2017 21:00:00 - - - - - - - - 0,0
20.10.2017 20:00:00 11,5 8,5 - 8 4 - - SSE 0,0
20.10.2017 19:00:00 11,8 9,1 - 11 6 - - S 0,0
20.10.2017 18:00:00 12,9 10,1 - 11 6 - - S 0,0
20.10.2017 17:00:00 13,3 11,5 - 5 3 - - SSW 0,0
20.10.2017 16:00:00 12,7 11,3 - 8 4 - - ENE 0,0
20.10.2017 15:00:00 13,2 10,6 - 8 4 - - ENE 0,0
20.10.2017 14:00:00 14,1 10,2 - 5 3 - - SW 0,0
20.10.2017 13:00:00 13,1 10,8 - 11 6 - - W 0,0
20.10.2017 12:00:00 12,7 11,3 - 5 3 - - W 0,0
20.10.2017 11:00:00 11,7 10,8 - 13 7 - - WNW 0,0
20.10.2017 10:00:00 11,3 10,8 12,0 18 10 - - W 0,2
20.10.2017 09:00:00 11,3 11,3 - 11 6 - - WSW 0,2
20.10.2017 08:00:00 10,5 10,4 - 2 1 - - E 0,0
20.10.2017 07:00:00 9,9 9,8 - 2 1 - - SSW 0,0
20.10.2017 06:00:00 10,1 9,8 - 2 1 - - W 0,0
20.10.2017 05:00:00 10,7 10,5 - 8 4 - - SSW 0,0
20.10.2017 04:00:00 10,4 10,2 - 4 2 - - SW 0,0
20.10.2017 03:00:00 10,9 10,5 - 4 2 - - E 0,4
20.10.2017 02:00:00 11,4 10,9 - 2 1 - - E 1,0
20.10.2017 01:00:00 11,6 11,0 - 0 0 - - N 0,4
20.10.2017 00:00:00 12,1 11,0 - 4 2 - - NNE 0,4
19.10.2017 23:00:00 12,4 11,0 - 9 5 - - E 0,6
19.10.2017 22:00:00 13,0 10,6 - 11 6 - - ESE 0,2
19.10.2017 21:00:00 13,7 10,3 - 13 7 - - ESE 0,0
19.10.2017 20:00:00 13,1 10,6 - 9 5 - - E 0,0
19.10.2017 19:00:00 13,3 10,8 - 13 7 - - E 0,0
19.10.2017 18:00:00 13,3 11,0 - 15 8 - - E 0,0
19.10.2017 17:00:00 14,2 10,7 - 18 10 - - ESE 0,0
19.10.2017 16:00:00 14,2 11,0 - 16 9 - - E 0,0
19.10.2017 15:00:00 14,0 10,9 - 16 9 - - ESE 0,0
19.10.2017 14:00:00 14,3 11,1 - 18 10 - - ESE 0,0
19.10.2017 13:00:00 13,6 11,6 - 16 9 - - E 0,0
19.10.2017 12:00:00 13,6 10,6 - 16 9 - - ESE 0,0
19.10.2017 11:00:00 13,8 10,4 - 16 9 - - ESE 0,0
19.10.2017 10:00:00 13,2 10,4 11,9 16 9 - - ESE 0,0
19.10.2017 09:00:00 13,2 10,1 - 16 9 - - ESE 0,0
19.10.2017 08:00:00 12,9 10,1 - 13 7 - - ESE 0,0
19.10.2017 07:00:00 12,4 10,0 - 16 9 - - E 0,0
19.10.2017 06:00:00 12,2 9,8 - 22 12 - - ESE 0,0
19.10.2017 05:00:00 11,5 9,6 - 24 13 - - ESE 0,0
19.10.2017 04:00:00 11,2 9,4 - 22 12 - - ESE 0,0
19.10.2017 03:00:00 11,3 8,8 - 24 13 - - ESE 0,0
19.10.2017 02:00:00 11,4 8,2 - 26 14 - - ESE 0,0
19.10.2017 01:00:00 10,9 8,1 - 28 15 46 25 ESE 0,0
19.10.2017 00:00:00 11,0 7,5 - 22 12 - - ESE 0,0
18.10.2017 23:00:00 11,3 7,2 - 29 16 50 27 E 0,0
18.10.2017 22:00:00 11,1 7,2 - 28 15 46 25 ESE 0,0
18.10.2017 21:00:00 10,9 7,5 - 29 16 - - E 0,0
18.10.2017 20:00:00 10,9 7,7 - 24 13 - - E 0,0
18.10.2017 19:00:00 10,9 7,3 - 16 9 - - ESE 0,0
18.10.2017 18:00:00 10,8 8,1 - 21 11 - - E 0,0
18.10.2017 17:00:00 10,9 8,4 - 21 11 - - E 0,0
18.10.2017 16:00:00 10,5 8,9 - 21 11 - - E 0,0
18.10.2017 15:00:00 11,7 7,8 - 22 12 - - E 0,0
18.10.2017 14:00:00 11,6 7,7 - 18 10 - - ESE 0,0
18.10.2017 13:00:00 11,6 7,9 - 24 13 - - E 0,0
18.10.2017 12:00:00 11,5 7,1 - 16 9 - - ESE 0,0
18.10.2017 11:00:00 11,3 6,6 - 22 12 - - ESE 0,0
18.10.2017 10:00:00 12,0 6,8 12,0 18 10 - - ESE 0,0
18.10.2017 09:00:00 10,6 6,5 - 22 12 - - ESE 0,0
18.10.2017 08:00:00 10,6 6,7 - 22 12 - - E 0,0
18.10.2017 07:00:00 10,4 7,3 - 15 8 - - E 0,0
18.10.2017 06:00:00 10,3 7,3 - 5 3 - - ESE 0,0
18.10.2017 05:00:00 10,3 7,0 - 9 5 - - ESE 0,0
18.10.2017 04:00:00 10,3 7,1 - 5 3 - - E 0,0
18.10.2017 03:00:00 10,2 7,0 - 8 4 - - E 0,0
18.10.2017 02:00:00 10,3 7,2 - 8 4 - - ESE 0,0
18.10.2017 01:00:00 10,1 8,4 - 4 2 - - ESE 0,0
18.10.2017 00:00:00 10,6 7,9 - 5 3 - - NE 0,0
17.10.2017 23:00:00 10,0 9,0 - 2 1 - - E 0,0
17.10.2017 22:00:00 10,2 8,8 - 2 1 - - WNW 0,0
17.10.2017 21:00:00 11,2 9,0 - 9 5 - - NE 0,0
17.10.2017 20:00:00 11,3 9,0 - 11 6 - - NE 0,0
17.10.2017 19:00:00 11,2 8,8 - 9 5 - - NNE 0,0
17.10.2017 18:00:00 12,1 8,5 - 8 4 - - NW 0,0
17.10.2017 17:00:00 12,2 8,5 - 24 13 - - NW 0,0
17.10.2017 16:00:00 12,4 8,3 - 9 5 - - NW 0,0
17.10.2017 15:00:00 12,4 9,7 - 18 10 - - W 0,0
17.10.2017 14:00:00 12,6 10,5 - 21 11 - - W 0,0
17.10.2017 13:00:00 12,3 10,6 - 28 15 - - W 0,0
17.10.2017 12:00:00 12,4 10,7 - 28 15 - - W 0,0
17.10.2017 11:00:00 12,3 10,4 - 28 15 - - W 0,0
17.10.2017 10:00:00 12,3 10,8 12,0 26 14 - - W 0,0
17.10.2017 09:00:00 12,6 10,9 - 28 15 - - W 0,0
17.10.2017 08:00:00 12,6 11,2 - 24 13 48 26 WSW 0,0
17.10.2017 07:00:00 12,8 11,2 - 29 16 48 26 WSW 0,0
17.10.2017 06:00:00 12,6 11,4 - 28 15 55 30 WSW 0,2
17.10.2017 05:00:00 12,9 11,8 - 29 16 52 28 WSW 0,2
17.10.2017 04:00:00 13,0 11,7 - 39 21 72 39 WSW 0,2
17.10.2017 03:00:00 13,0 12,0 - 41 22 74 40 WSW 0,6

tt = temperature
td = dewpoint
tt -20cm = temperature -20cm
ff = wind speed
fx = gusts
dd = wind direction
rr = precipitation

Next stations